Time;durP1;ratioP1;P1;durP2;ratioP2;P2;SDS_P1;SDS_P2;PMS_P1;PMS_P2;Temp;Humidity;BMP_temperature;BMP_pressure;BME280_temperature;BME280_humidity;BME280_pressure;Samples;Min_cycle;Max_cycle;Signal;HPM_P1;HPM_P2
2022/04/07 00:01:54;;;;;;;5.88;1.88;;;;;;;12.42;74.48;99502.63;5074528;28;20060;-55
2022/04/07 00:04:22;;;;;;;8.73;1.55;;;;;;;12.50;74.03;99487.81;5071786;28;20052;-54
2022/04/07 00:06:49;;;;;;;8.85;1.48;;;;;;;12.66;73.43;99480.34;5073397;28;20040;-62
2022/04/07 00:09:17;;;;;;;5.90;1.58;;;;;;;12.48;73.72;99477.13;5074904;28;20059;-62
2022/04/07 00:11:44;;;;;;;6.38;1.55;;;;;;;12.81;72.97;99456.63;5073055;28;20052;-62
2022/04/07 00:14:12;;;;;;;6.63;1.25;;;;;;;12.52;73.05;99463.41;5074545;28;20044;-62
2022/04/07 00:16:39;;;;;;;5.63;1.40;;;;;;;12.54;72.93;99447.28;5074240;28;20063;-63
2022/04/07 00:19:07;;;;;;;5.78;1.48;;;;;;;12.54;73.47;99458.34;5074037;28;20167;-61
2022/04/07 00:21:35;;;;;;;9.50;1.73;;;;;;;12.55;72.73;99453.63;5074136;28;20063;-62
2022/04/07 00:24:03;;;;;;;6.35;1.55;;;;;;;12.60;73.44;99451.41;5074472;28;20056;-62
2022/04/07 00:26:32;;;;;;;7.22;1.48;;;;;;;12.44;73.44;99448.66;5074507;28;20049;-63
2022/04/07 00:28:59;;;;;;;8.10;1.50;;;;;;;12.50;73.40;99449.16;5090180;28;20052;-62
2022/04/07 00:31:27;;;;;;;9.75;2.03;;;;;;;12.48;73.08;99447.94;5071635;28;20059;-62
2022/04/07 00:33:54;;;;;;;5.93;1.23;;;;;;;12.44;73.45;99453.34;5069184;28;20052;-63
2022/04/07 00:36:21;;;;;;;5.53;1.48;;;;;;;12.55;73.16;99448.09;5074258;28;20051;-62
2022/04/07 00:38:48;;;;;;;7.18;1.75;;;;;;;12.44;73.25;99445.06;5071162;28;20063;-63
2022/04/07 00:41:15;;;;;;;6.15;1.55;;;;;;;12.76;73.08;99437.56;5074245;28;20403;-62
2022/04/07 00:43:49;;;;;;;9.90;1.67;;;;;;;12.67;72.29;99431.44;5056808;28;20048;-62
2022/04/07 00:46:16;;;;;;;13.57;1.55;;;;;;;12.39;73.06;99426.03;5074302;28;20072;-62
2022/04/07 00:48:44;;;;;;;8.30;1.88;;;;;;;12.35;72.96;99412.13;5074336;28;20049;-62
2022/04/07 00:51:11;;;;;;;7.40;1.80;;;;;;;12.34;73.28;99416.03;5074024;28;20059;-62
2022/04/07 00:53:39;;;;;;;7.75;1.60;;;;;;;12.47;73.23;99402.94;5065250;28;20396;-62
2022/04/07 00:56:07;;;;;;;7.60;1.90;;;;;;;12.40;73.11;99398.03;5074359;28;20045;-63
2022/04/07 00:58:35;;;;;;;8.20;1.73;;;;;;;12.40;73.09;99400.00;5087513;28;20365;-62
2022/04/07 01:01:02;;;;;;;11.60;2.50;;;;;;;12.51;72.46;99386.44;5072810;28;20052;-62
2022/04/07 01:03:30;;;;;;;8.98;1.50;;;;;;;12.45;72.11;99377.63;5073831;28;20048;-62
2022/04/07 01:05:59;;;;;;;10.98;1.90;;;;;;;12.82;71.49;99372.56;5074228;28;20083;-61
2022/04/07 01:08:30;;;;;;;10.63;1.95;;;;;;;12.71;71.60;99364.03;5062341;28;20048;-62
2022/04/07 01:10:57;;;;;;;13.00;1.98;;;;;;;12.56;71.60;99362.13;5069185;28;20063;-62
2022/04/07 01:13:42;;;;;;;8.90;1.90;;;;;;;12.52;72.38;99350.19;5072393;28;20131;-63
2022/04/07 01:16:10;;;;;;;10.82;2.00;;;;;;;12.73;71.17;99358.94;5055920;28;20517;-62
2022/04/07 01:18:38;;;;;;;11.60;2.28;;;;;;;12.66;71.99;99347.75;5076527;28;20060;-62
2022/04/07 01:21:08;;;;;;;10.98;2.42;;;;;;;12.48;72.65;99347.31;5078003;28;20052;-57
2022/04/07 01:23:38;;;;;;;12.23;1.83;;;;;;;12.62;72.59;99349.66;5070775;28;20052;-56
2022/04/07 01:26:05;;;;;;;17.27;2.30;;;;;;;12.67;72.31;99343.84;5074576;28;20052;-56
2022/04/07 01:28:33;;;;;;;15.95;1.90;;;;;;;12.61;72.38;99348.03;5077454;28;20044;-62
2022/04/07 01:31:00;;;;;;;10.95;1.80;;;;;;;12.75;72.00;99345.59;5076606;28;20064;-61
2022/04/07 01:33:27;;;;;;;16.77;2.60;;;;;;;12.46;73.10;99338.59;5092812;28;20404;-63
2022/04/07 01:35:55;;;;;;;13.57;2.13;;;;;;;12.70;72.86;99326.53;5076221;28;20053;-62
2022/04/07 01:38:22;;;;;;;17.42;2.17;;;;;;;12.55;72.67;99326.56;5074411;28;20527;-62
2022/04/07 01:40:49;;;;;;;9.65;2.20;;;;;;;12.62;73.28;99326.75;5075951;28;20045;-62
2022/04/07 01:43:17;;;;;;;14.50;1.83;;;;;;;12.59;73.06;99324.69;5074901;28;20064;-62
2022/04/07 01:45:45;;;;;;;14.13;2.10;;;;;;;12.72;73.03;99323.41;5075700;28;20059;-62
2022/04/07 01:48:13;;;;;;;9.15;1.95;;;;;;;12.61;73.83;99314.88;5070773;28;20396;-62
2022/04/07 01:50:40;;;;;;;7.93;1.60;;;;;;;12.58;73.43;99328.59;5070122;28;20437;-61
2022/04/07 01:53:08;;;;;;;10.93;2.10;;;;;;;12.62;73.81;99323.97;5075534;28;20055;-61
2022/04/07 01:55:36;;;;;;;13.93;1.85;;;;;;;12.51;75.10;99328.44;5075913;28;20471;-62
2022/04/07 01:58:04;;;;;;;11.50;2.40;;;;;;;12.54;76.00;99324.94;5075805;28;20052;-63
2022/04/07 02:00:31;;;;;;;10.88;2.05;;;;;;;12.53;77.61;99318.66;5076867;28;20064;-63
2022/04/07 02:02:58;;;;;;;8.77;1.73;;;;;;;12.28;78.73;99320.03;5067746;28;20048;-63
2022/04/07 02:05:26;;;;;;;9.43;1.98;;;;;;;12.24;79.53;99313.59;5076016;28;20048;-62
2022/04/07 02:07:53;;;;;;;14.65;2.25;;;;;;;12.46;78.50;99310.97;5076659;28;20052;-61
2022/04/07 02:10:23;;;;;;;14.68;2.88;;;;;;;12.29;79.13;99316.13;5076737;28;20040;-62
2022/04/07 02:12:50;;;;;;;8.98;1.90;;;;;;;12.35;79.10;99309.16;5076047;28;20068;-63
2022/04/07 02:15:17;;;;;;;10.30;1.67;;;;;;;12.50;78.66;99294.50;5076175;28;20048;-63
2022/04/07 02:17:44;;;;;;;8.90;1.95;;;;;;;12.38;78.51;99297.38;5074616;28;20556;-63
2022/04/07 02:20:12;;;;;;;10.35;2.03;;;;;;;12.36;78.85;99291.44;5076241;28;20145;-62
2022/04/07 02:22:39;;;;;;;12.07;2.50;;;;;;;12.20;79.57;99287.91;5076238;28;20056;-57
2022/04/07 02:25:11;;;;;;;12.02;2.50;;;;;;;12.24;79.25;99277.72;5076917;28;20052;-56
2022/04/07 02:27:40;;;;;;;10.98;1.88;;;;;;;12.37;78.95;99268.16;5075336;28;20045;-57
2022/04/07 02:30:12;;;;;;;13.48;2.70;;;;;;;12.48;78.18;99255.41;5076116;28;20063;-58
2022/04/07 02:32:40;;;;;;;8.65;1.83;;;;;;;12.36;79.27;99256.31;5075415;28;20061;-59
2022/04/07 02:39:16;;;;;;;11.23;2.10;;;;;;;12.45;80.23;99234.84;5061097;28;20404;-64
2022/04/07 02:42:09;;;;;;;8.25;1.67;;;;;;;12.30;81.19;99227.41;5073925;28;20056;-64
2022/04/07 02:44:46;;;;;;;9.85;2.03;;;;;;;12.23;81.97;99223.69;5075577;28;20055;-63
2022/04/07 02:47:30;;;;;;;10.00;1.90;;;;;;;12.28;81.82;99213.16;5071697;28;20520;-63
2022/04/07 02:50:02;;;;;;;9.95;1.98;;;;;;;12.24;82.78;99200.41;5075170;28;20055;-63
2022/04/07 02:52:30;;;;;;;10.40;2.15;;;;;;;12.17;83.02;99201.06;5091474;28;20063;-63
2022/04/07 02:54:57;;;;;;;10.35;2.35;;;;;;;12.22;82.94;99197.25;5074371;28;20053;-62
2022/04/07 02:57:25;;;;;;;11.88;2.33;;;;;;;12.25;82.85;99188.22;5076040;28;20052;-66
2022/04/07 02:59:52;;;;;;;8.20;1.90;;;;;;;12.21;83.32;99188.16;5076228;28;20380;-63
2022/04/07 03:02:20;;;;;;;11.68;1.77;;;;;;;12.23;83.68;99180.31;5071337;28;20044;-63
2022/04/07 03:04:47;;;;;;;9.38;1.90;;;;;;;12.25;83.32;99168.91;5076039;28;20399;-62
2022/04/07 03:07:15;;;;;;;9.20;2.10;;;;;;;12.11;83.44;99163.09;5075361;28;20171;-63
2022/04/07 03:09:42;;;;;;;8.52;1.90;;;;;;;12.28;83.09;99163.47;5075675;28;20476;-63
2022/04/07 03:12:10;;;;;;;8.75;1.73;;;;;;;12.24;83.16;99148.78;5075268;28;20052;-63
2022/04/07 03:14:37;;;;;;;8.52;1.85;;;;;;;12.39;82.54;99158.97;5075764;28;20056;-63
2022/04/07 03:17:04;;;;;;;8.35;2.30;;;;;;;12.50;82.24;99150.09;5072808;28;20056;-61
2022/04/07 03:19:32;;;;;;;8.48;1.70;;;;;;;12.36;82.95;99145.88;5075222;28;20052;-62
2022/04/07 03:21:59;;;;;;;8.57;1.83;;;;;;;12.34;83.30;99136.38;5075255;28;20057;-61
2022/04/07 03:24:27;;;;;;;9.27;2.50;;;;;;;12.36;83.54;99120.25;5074771;28;20057;-62
2022/04/07 03:27:07;;;;;;;9.73;2.55;;;;;;;12.20;84.40;99122.28;5075149;28;20511;-62
2022/04/07 03:29:34;;;;;;;10.70;2.17;;;;;;;12.20;84.77;99108.47;5074402;28;20071;-62
2022/04/07 03:32:04;;;;;;;12.88;2.03;;;;;;;12.39;83.92;99086.38;5073556;28;20063;-62
2022/04/07 03:34:36;;;;;;;9.98;1.88;;;;;;;12.33;84.10;99090.59;5074819;28;20648;-63
2022/04/07 03:37:04;;;;;;;12.70;2.15;;;;;;;12.31;84.18;99090.94;5074845;28;20052;-62
2022/04/07 03:39:32;;;;;;;10.73;2.40;;;;;;;12.46;83.89;99078.22;5085940;28;20055;-63
2022/04/07 03:42:00;;;;;;;8.95;2.58;;;;;;;12.21;84.81;99069.47;5073604;28;20041;-62
2022/04/07 03:44:27;;;;;;;12.02;2.88;;;;;;;12.48;84.67;99058.53;5074607;28;20432;-62
2022/04/07 03:46:54;;;;;;;12.43;2.70;;;;;;;12.36;84.19;99049.25;5074795;28;20075;-62
2022/04/07 03:49:22;;;;;;;11.60;2.13;;;;;;;12.45;84.38;99033.25;5072268;28;20079;-62
2022/04/07 03:51:49;;;;;;;12.95;2.55;;;;;;;12.48;84.11;99026.97;5064637;28;20086;-62
2022/04/07 03:54:17;;;;;;;9.15;2.22;;;;;;;12.52;83.88;99012.47;5074104;28;20056;-63
2022/04/07 03:56:45;;;;;;;8.70;1.90;;;;;;;12.59;83.99;99005.06;5074157;28;20507;-63
2022/04/07 03:59:13;;;;;;;9.43;2.28;;;;;;;12.39;84.39;99015.41;5070273;28;20048;-66
2022/04/07 04:01:40;;;;;;;10.00;2.00;;;;;;;12.70;83.13;98995.03;5074668;28;20040;-62
2022/04/07 04:04:08;;;;;;;7.43;2.10;;;;;;;12.45;84.06;98982.72;5074603;28;20055;-62
2022/04/07 04:06:35;;;;;;;9.70;2.83;;;;;;;12.46;83.96;98987.09;5074249;28;20052;-63
2022/04/07 04:09:02;;;;;;;9.95;2.47;;;;;;;12.66;83.13;98991.38;5074904;28;20052;-62
2022/04/07 04:11:30;;;;;;;12.65;1.77;;;;;;;12.45;83.36;98978.00;5074713;28;20080;-62
2022/04/07 04:13:58;;;;;;;10.25;2.00;;;;;;;12.49;84.38;98986.38;5072749;28;20488;-62
2022/04/07 04:16:32;;;;;;;6.82;1.70;;;;;;;12.59;83.38;98971.94;5074428;28;20051;-63
2022/04/07 04:19:02;;;;;;;8.02;1.73;;;;;;;12.67;83.07;98972.84;5074460;28;20649;-63
2022/04/07 04:21:30;;;;;;;5.05;1.25;;;;;;;12.71;83.27;98973.72;5074739;28;20045;-62
2022/04/07 04:23:57;;;;;;;10.52;2.38;;;;;;;12.85;82.05;98962.91;5074272;28;20059;-62
2022/04/07 04:26:25;;;;;;;10.05;2.10;;;;;;;12.88;81.91;98959.38;5074566;28;20078;-62
2022/04/07 04:28:52;;;;;;;11.05;2.35;;;;;;;12.86;82.13;98959.75;5073486;28;20037;-62
2022/04/07 04:31:24;;;;;;;10.50;2.40;;;;;;;13.00;81.25;98956.41;5074559;28;20055;-62
2022/04/07 04:33:52;;;;;;;16.70;2.22;;;;;;;12.76;82.19;98962.34;5074260;28;20053;-62
2022/04/07 04:36:19;;;;;;;11.75;2.10;;;;;;;12.90;82.38;98946.00;5055821;28;20064;-63
2022/04/07 04:38:47;;;;;;;12.27;2.50;;;;;;;13.02;81.60;98954.13;5073155;28;20041;-62
2022/04/07 04:41:15;;;;;;;10.77;2.17;;;;;;;12.78;82.38;98935.94;5074598;28;20064;-62
2022/04/07 04:43:42;;;;;;;12.73;2.38;;;;;;;13.06;81.73;98944.69;5072719;28;20052;-63
2022/04/07 04:46:12;;;;;;;;;;;;;;;12.94;81.31;98952.34;5074951;28;20055;-64
2022/04/07 04:48:40;;;;;;;9.68;2.17;;;;;;;13.00;81.59;98937.06;5074104;28;19924;-61
2022/04/07 04:51:07;;;;;;;14.43;2.60;;;;;;;13.07;80.94;98935.25;5078950;28;20045;-62
2022/04/07 04:53:35;;;;;;;12.38;2.38;;;;;;;12.94;81.78;98933.00;5074357;28;20075;-62
2022/04/07 04:56:02;;;;;;;11.07;2.63;;;;;;;13.02;81.34;98932.78;5078036;28;20056;-63
2022/04/07 04:58:29;;;;;;;8.13;1.98;;;;;;;13.04;81.39;98932.44;5075335;28;20048;-56
2022/04/07 05:00:57;;;;;;;8.95;1.95;;;;;;;13.20;80.36;98921.97;5078046;28;20456;-59
2022/04/07 05:03:26;;;;;;;10.05;2.30;;;;;;;12.98;80.73;98918.09;5078003;28;20455;-60
2022/04/07 05:05:53;;;;;;;14.82;2.83;;;;;;;12.98;80.96;98928.34;5077113;28;20048;-57
2022/04/07 05:08:21;;;;;;;9.73;2.38;;;;;;;12.95;81.38;98924.38;5053323;28;20048;-56
2022/04/07 05:10:48;;;;;;;9.18;2.83;;;;;;;12.92;81.19;98916.81;5084558;28;20597;-58
2022/04/07 05:13:15;;;;;;;9.60;2.33;;;;;;;13.04;81.10;98910.31;5086398;28;20049;-58
2022/04/07 05:15:43;;;;;;;8.38;2.13;;;;;;;13.16;80.39;98908.09;5071093;28;20456;-58
2022/04/07 05:18:10;;;;;;;10.23;1.67;;;;;;;13.09;80.41;98896.94;5077399;28;20045;-57
2022/04/07 05:20:37;;;;;;;8.95;1.65;;;;;;;12.99;80.79;98894.81;5076305;28;20057;-59
2022/04/07 05:23:05;;;;;;;9.00;2.15;;;;;;;13.07;80.49;98898.50;5077280;28;20056;-57
2022/04/07 05:25:32;;;;;;;13.00;2.00;;;;;;;13.06;81.09;98902.44;5077672;28;20100;-58
2022/04/07 05:27:59;;;;;;;8.77;1.75;;;;;;;13.14;80.63;98882.81;5077051;28;20036;-56
2022/04/07 05:30:33;;;;;;;7.15;1.92;;;;;;;13.13;79.65;98891.47;5059682;28;20045;-61
2022/04/07 05:33:02;;;;;;;7.47;1.67;;;;;;;13.25;79.05;98871.91;5069605;28;20047;-53
2022/04/07 05:35:30;;;;;;;5.93;1.85;;;;;;;13.13;79.17;98867.41;5079204;28;20491;-58
2022/04/07 05:37:59;;;;;;;5.63;1.88;;;;;;;13.15;78.50;98869.78;5073129;28;20040;-58
2022/04/07 05:40:26;;;;;;;7.88;2.08;;;;;;;13.15;78.63;98867.81;5059033;28;20052;-53
2022/04/07 05:42:54;;;;;;;5.85;1.65;;;;;;;12.93;79.13;98863.16;5088284;28;20048;-56
2022/04/07 05:45:22;;;;;;;7.22;1.73;;;;;;;13.22;78.37;98848.56;5075303;28;20059;-58
2022/04/07 05:47:49;;;;;;;9.73;2.33;;;;;;;13.16;78.11;98846.50;5067611;28;20060;-56
2022/04/07 05:50:17;;;;;;;9.88;3.08;;;;;;;13.13;78.12;98850.00;5083234;28;20043;-57
2022/04/07 05:52:44;;;;;;;8.10;1.80;;;;;;;13.19;78.72;98852.09;5083692;28;20059;-57
2022/04/07 05:55:12;;;;;;;11.15;2.00;;;;;;;13.27;78.34;98852.94;5086519;28;20051;-57
2022/04/07 05:57:39;;;;;;;8.20;2.63;;;;;;;13.26;78.44;98851.38;5076816;28;20404;-56
2022/04/07 06:00:12;;;;;;;12.25;2.08;;;;;;;13.37;77.67;98846.78;5076849;28;20060;-54
2022/04/07 06:02:40;;;;;;;10.60;1.75;;;;;;;13.30;77.93;98861.28;5074646;28;20056;-57
2022/04/07 06:05:11;;;;;;;10.25;2.60;;;;;;;13.30;77.60;98844.69;5076413;28;20055;-60
2022/04/07 06:07:42;;;;;;;9.25;2.13;;;;;;;13.42;77.22;98843.66;5075407;28;20387;-56
2022/04/07 06:10:09;;;;;;;10.38;2.10;;;;;;;13.19;77.32;98838.25;5076977;28;20543;-61
2022/04/07 06:12:46;;;;;;;9.65;1.85;;;;;;;13.24;77.39;98835.16;5062975;28;20071;-57
2022/04/07 06:15:13;;;;;;;9.07;2.03;;;;;;;13.33;77.27;98838.44;5076263;28;20055;-55
2022/04/07 06:17:44;;;;;;;12.02;2.10;;;;;;;13.46;76.93;98845.28;5067108;28;20044;-61
2022/04/07 06:20:34;;;;;;;11.48;2.40;;;;;;;13.53;76.03;98839.84;5076766;28;20040;-64
2022/04/07 06:23:09;;;;;;;8.70;1.88;;;;;;;13.40;76.50;98852.34;5058124;28;20064;-62
2022/04/07 06:25:36;;;;;;;12.32;2.30;;;;;;;13.54;76.08;98837.88;5073007;28;20052;-59
2022/04/07 06:28:04;;;;;;;11.88;2.13;;;;;;;13.28;76.36;98840.72;5072171;28;20052;-58
2022/04/07 06:30:31;;;;;;;16.55;2.67;;;;;;;13.35;76.70;98847.13;5070028;28;20037;-57
2022/04/07 06:32:59;;;;;;;10.82;2.15;;;;;;;13.32;77.45;98828.53;5063478;28;20052;-57
2022/04/07 06:35:26;;;;;;;11.98;2.95;;;;;;;13.41;76.58;98833.75;5069525;28;20172;-58
2022/04/07 06:37:56;;;;;;;11.23;2.45;;;;;;;13.32;77.41;98819.44;5063773;28;20055;-56
2022/04/07 06:40:23;;;;;;;10.73;2.55;;;;;;;13.23;77.62;98824.47;5075724;28;20041;-55
2022/04/07 06:42:52;;;;;;;10.40;1.58;;;;;;;13.27;78.13;98819.78;5066071;28;20207;-56
2022/04/07 06:45:25;;;;;;;11.13;2.35;;;;;;;13.42;77.78;98808.50;5076005;28;20045;-58
2022/04/07 06:47:53;;;;;;;8.63;2.22;;;;;;;13.58;77.41;98817.38;5075747;28;20044;-57
2022/04/07 06:50:21;;;;;;;9.85;2.17;;;;;;;13.52;77.37;98796.78;5073367;28;20048;-56
2022/04/07 06:52:48;;;;;;;9.25;2.05;;;;;;;13.42;77.66;98802.97;5070925;28;20048;-58
2022/04/07 06:55:16;;;;;;;8.93;1.98;;;;;;;13.48;77.89;98808.94;5079924;28;20072;-57
2022/04/07 06:57:50;;;;;;;10.02;2.30;;;;;;;13.60;77.24;98808.69;5067809;28;20057;-57
2022/04/07 07:00:19;;;;;;;10.95;2.00;;;;;;;13.88;76.12;98797.91;5064747;28;20045;-55
2022/04/07 07:02:53;;;;;;;6.60;1.88;;;;;;;13.60;77.03;98789.31;5067547;28;20048;-56
2022/04/07 07:05:21;;;;;;;10.00;1.80;;;;;;;13.55;78.20;98800.72;5072797;28;20522;-56
2022/04/07 07:07:49;;;;;;;7.28;1.65;;;;;;;13.53;78.14;98797.53;5071333;28;20054;-56
2022/04/07 07:10:24;;;;;;;7.32;1.50;;;;;;;13.81;77.54;98806.13;5073045;28;20055;-57
2022/04/07 07:12:52;;;;;;;7.32;1.50;;;;;;;13.48;77.98;98792.34;5073434;28;20053;-57
2022/04/07 07:15:23;;;;;;;11.23;2.10;;;;;;;13.55;78.22;98803.50;5055062;28;20041;-57
2022/04/07 07:17:51;;;;;;;7.20;1.70;;;;;;;13.63;77.90;98799.66;5071387;28;20051;-59
2022/04/07 07:20:20;;;;;;;8.35;1.38;;;;;;;13.70;77.85;98798.91;5077482;28;20075;-58
2022/04/07 07:22:47;;;;;;;9.13;1.85;;;;;;;13.46;78.43;98789.97;5073418;28;20052;-56
2022/04/07 07:25:15;;;;;;;7.15;1.77;;;;;;;13.67;78.25;98791.38;5074606;28;20055;-59
2022/04/07 07:27:46;;;;;;;6.35;1.65;;;;;;;13.68;78.57;98792.97;5074569;28;20052;-57
2022/04/07 07:30:16;;;;;;;8.68;2.00;;;;;;;13.72;78.88;98799.34;5075103;28;20040;-62
2022/04/07 07:32:45;;;;;;;6.25;1.35;;;;;;;13.63;80.10;98791.34;5076184;28;20059;-62
2022/04/07 07:35:13;;;;;;;8.77;1.55;;;;;;;13.66;80.36;98787.00;5074683;28;20052;-64
2022/04/07 07:37:48;;;;;;;10.82;1.58;;;;;;;13.63;80.07;98805.19;5074840;28;20523;-63
2022/04/07 07:40:16;;;;;;;7.88;1.52;;;;;;;13.69;79.70;98789.81;5074668;28;20059;-63
2022/04/07 07:42:44;;;;;;;6.30;1.50;;;;;;;13.82;79.14;98770.97;5067890;28;20041;-63
2022/04/07 07:45:11;;;;;;;2.55;0.88;;;;;;;13.98;78.52;98774.28;5058061;28;20412;-62
2022/04/07 07:47:59;;;;;;;4.38;1.08;;;;;;;14.08;78.39;98763.28;5059126;28;20053;-58
2022/04/07 07:50:26;;;;;;;7.13;2.42;;;;;;;14.22;77.81;98771.69;5061990;28;20079;-62
2022/04/07 07:52:54;;;;;;;6.30;2.47;;;;;;;14.05;78.25;98757.72;5069093;28;20055;-56
2022/04/07 07:55:22;;;;;;;6.68;1.63;;;;;;;14.24;77.39;98757.47;5060441;28;20056;-56
2022/04/07 07:57:49;;;;;;;4.93;1.35;;;;;;;14.10;78.85;98760.13;5072561;28;20479;-54
2022/04/07 08:00:17;;;;;;;4.45;1.02;;;;;;;14.08;79.48;98749.44;5073340;28;20047;-63
2022/04/07 08:02:44;;;;;;;5.72;1.17;;;;;;;14.15;78.89;98757.00;5081188;28;20057;-65
2022/04/07 08:05:12;;;;;;;4.57;1.23;;;;;;;13.97;79.56;98767.13;5065382;28;20625;-58
2022/04/07 08:07:41;;;;;;;3.00;1.10;;;;;;;13.71;80.77;98770.06;5070483;28;20063;-57
2022/04/07 08:10:09;;;;;;;7.82;1.10;;;;;;;13.88;80.20;98761.16;5069259;28;20068;-57
2022/04/07 08:12:38;;;;;;;5.60;1.00;;;;;;;14.04;80.02;98754.16;5058722;28;20048;-58
2022/04/07 08:15:06;;;;;;;4.38;0.85;;;;;;;14.30;79.55;98765.06;5068414;28;20053;-56
2022/04/07 08:17:34;;;;;;;2.70;0.75;;;;;;;14.24;79.40;98757.47;5072280;28;20048;-57
2022/04/07 08:20:07;;;;;;;3.85;0.80;;;;;;;14.32;79.56;98748.03;5072514;28;20515;-57
2022/04/07 08:22:35;;;;;;;2.08;0.60;;;;;;;14.35;78.86;98750.03;5068907;28;20904;-54
2022/04/07 08:25:03;;;;;;;3.78;0.77;;;;;;;14.51;78.11;98748.56;5074479;28;20036;-55
2022/04/07 08:27:30;;;;;;;3.20;0.70;;;;;;;14.65;77.58;98736.75;5074579;28;20068;-58
2022/04/07 08:29:57;;;;;;;4.97;1.45;;;;;;;14.83;76.69;98751.50;5065562;28;20051;-55
2022/04/07 08:32:25;;;;;;;4.78;1.50;;;;;;;14.78;75.80;98753.84;5074817;28;20056;-58
2022/04/07 08:34:52;;;;;;;5.70;1.40;;;;;;;14.62;76.96;98751.41;5077810;28;20059;-56
2022/04/07 08:37:20;;;;;;;2.75;0.88;;;;;;;14.87;76.45;98738.44;5076657;28;20052;-56
2022/04/07 08:39:49;;;;;;;2.97;0.70;;;;;;;14.92;75.60;98737.28;5077694;28;20428;-58
2022/04/07 08:42:23;;;;;;;2.00;0.73;;;;;;;15.07;75.33;98725.06;5071635;28;20052;-57
2022/04/07 08:44:50;;;;;;;3.03;0.90;;;;;;;15.18;74.08;98740.56;5056384;28;20057;-57
2022/04/07 08:47:20;;;;;;;6.70;1.20;;;;;;;15.08;74.75;98738.53;5077357;28;20048;-55
2022/04/07 08:49:48;;;;;;;3.13;0.80;;;;;;;15.28;74.29;98753.66;5075724;28;20045;-57
2022/04/07 08:52:16;;;;;;;2.67;0.60;;;;;;;15.15;73.38;98748.88;5077423;28;20054;-58
2022/04/07 08:54:47;;;;;;;7.07;0.70;;;;;;;14.95;74.18;98730.97;5077946;28;20609;-57
2022/04/07 08:57:15;;;;;;;5.70;1.00;;;;;;;15.07;73.99;98750.81;5077569;28;20500;-58
2022/04/07 08:59:43;;;;;;;2.95;0.68;;;;;;;14.84;74.79;98730.91;5072044;28;20056;-59
2022/04/07 09:02:10;;;;;;;3.20;1.05;;;;;;;15.11;74.31;98737.75;5078158;28;20052;-56
2022/04/07 09:04:40;;;;;;;7.38;0.70;;;;;;;15.02;74.17;98753.16;5077744;28;20064;-58
2022/04/07 09:07:07;;;;;;;5.45;1.15;;;;;;;15.06;74.36;98746.47;5075686;28;20060;-58
2022/04/07 09:09:38;;;;;;;3.03;0.80;;;;;;;15.29;73.59;98752.47;5071619;28;20545;-58
2022/04/07 09:12:07;;;;;;;1.88;0.40;;;;;;;15.42;72.56;98739.06;5077790;28;20052;-57
2022/04/07 09:14:35;;;;;;;2.33;0.63;;;;;;;15.27;72.86;98738.19;5077231;28;20049;-54
2022/04/07 09:17:03;;;;;;;3.65;1.60;;;;;;;15.43;73.30;98744.19;5075426;28;20052;-58
2022/04/07 09:19:31;;;;;;;3.88;1.00;;;;;;;15.74;71.89;98745.47;5071401;28;20045;-58
2022/04/07 09:22:10;;;;;;;4.63;0.80;;;;;;;15.91;71.41;98758.56;5074436;28;20061;-57
2022/04/07 09:24:39;;;;;;;4.35;0.82;;;;;;;16.18;70.53;98762.50;5066948;28;20053;-56
2022/04/07 09:27:11;;;;;;;2.47;0.80;;;;;;;15.82;71.11;98740.69;5079950;28;20047;-63
2022/04/07 09:29:39;;;;;;;2.42;0.68;;;;;;;15.72;71.58;98740.31;5077334;28;20045;-64
2022/04/07 09:32:23;;;;;;;4.82;1.10;;;;;;;15.95;71.03;98739.13;5075736;28;20056;-63
2022/04/07 09:34:57;;;;;;;3.63;0.40;;;;;;;15.57;71.46;98740.66;5068053;28;20053;-62
2022/04/07 09:37:26;;;;;;;2.15;0.85;;;;;;;15.74;71.53;98746.22;5063990;28;20056;-63
2022/04/07 09:40:09;;;;;;;4.07;1.13;;;;;;;15.55;72.04;98746.59;5073193;28;20080;-62
2022/04/07 09:42:37;;;;;;;6.65;1.20;;;;;;;15.47;71.71;98760.84;5059543;28;20048;-63
2022/04/07 09:45:07;;;;;;;5.88;0.82;;;;;;;15.61;71.84;98760.88;5075365;28;20055;-64
2022/04/07 09:47:39;;;;;;;7.70;1.38;;;;;;;15.50;71.61;98774.75;5076884;28;20495;-63
2022/04/07 09:50:08;;;;;;;4.10;0.80;;;;;;;15.46;71.77;98754.50;5076025;28;20044;-61
2022/04/07 09:52:40;;;;;;;4.47;0.95;;;;;;;15.43;71.57;98771.19;5074922;28;20056;-63
2022/04/07 09:55:08;;;;;;;3.85;0.80;;;;;;;15.46;71.63;98773.94;5075929;28;20051;-64
2022/04/07 09:57:36;;;;;;;2.83;0.70;;;;;;;15.44;70.77;98770.78;5076823;28;20048;-63
2022/04/07 10:00:05;;;;;;;4.57;0.73;;;;;;;15.50;70.62;98766.41;5074386;28;20040;-63
2022/04/07 10:02:32;;;;;;;9.27;1.02;;;;;;;15.73;70.81;98777.16;5075069;28;20063;-63
2022/04/07 10:05:01;;;;;;;5.32;0.80;;;;;;;15.51;70.58;98778.31;5076378;28;20052;-62
2022/04/07 10:07:28;;;;;;;4.28;0.82;;;;;;;15.44;70.74;98767.19;5075231;28;20052;-62
2022/04/07 10:09:55;;;;;;;1.23;0.70;;;;;;;15.69;70.46;98779.94;5076840;28;20053;-59
2022/04/07 10:12:24;;;;;;;2.33;0.90;;;;;;;15.67;71.86;98789.84;5074655;28;20067;-57
2022/04/07 10:14:52;;;;;;;2.58;1.05;;;;;;;15.52;73.40;98802.09;5073975;28;20061;-56
2022/04/07 10:17:20;;;;;;;5.60;1.52;;;;;;;15.42;75.77;98833.38;5072729;28;20049;-58
2022/04/07 10:19:53;;;;;;;4.85;0.88;;;;;;;14.80;79.50;98856.81;5066343;28;20044;-57
2022/04/07 10:22:20;;;;;;;3.20;0.80;;;;;;;14.03;84.12;98863.31;5062201;28;20051;-60
2022/04/07 10:24:50;;;;;;;4.10;1.38;;;;;;;13.76;85.75;98869.31;5091521;28;20361;-59
2022/04/07 10:27:39;;;;;;;3.20;1.15;;;;;;;13.93;85.63;98872.28;5061087;28;20057;-56
2022/04/07 10:30:10;;;;;;;6.63;1.35;;;;;;;14.09;85.51;98880.34;5065979;28;20056;-56
2022/04/07 10:32:45;;;;;;;3.90;1.15;;;;;;;14.10;85.22;98882.75;5068415;28;20048;-57
2022/04/07 10:35:32;;;;;;;3.50;0.95;;;;;;;14.07;84.89;98891.03;5075681;28;20052;-58
2022/04/07 10:38:02;;;;;;;3.63;1.30;;;;;;;13.76;83.01;98903.34;5074252;28;20052;-53
2022/04/07 10:40:51;;;;;;;4.55;0.93;;;;;;;13.87;83.43;98889.63;5073628;28;20052;-54
2022/04/07 10:43:21;;;;;;;;;;;;;;;13.91;83.13;98896.00;5071869;28;20048;-55
2022/04/07 10:45:51;;;;;;;2.92;0.80;;;;;;;14.13;80.12;98887.50;5076132;28;19928;-58
2022/04/07 10:48:19;;;;;;;2.70;1.15;;;;;;;14.04;77.12;98906.41;5074718;28;20052;-56
2022/04/07 10:51:07;;;;;;;2.13;0.85;;;;;;;14.07;75.71;98913.94;5072905;28;20537;-56
2022/04/07 10:53:39;;;;;;;1.63;0.70;;;;;;;14.19;76.03;98913.66;5069649;28;20052;-57
2022/04/07 10:56:09;;;;;;;2.38;0.90;;;;;;;14.29;73.35;98923.31;5073698;28;20522;-58
2022/04/07 10:58:54;;;;;;;2.28;1.20;;;;;;;14.31;73.30;98918.94;5075694;28;20060;-57
2022/04/07 11:01:30;;;;;;;5.20;1.60;;;;;;;14.40;72.41;98913.13;5074552;28;20044;-54
2022/04/07 11:04:25;;;;;;;8.60;2.53;;;;;;;14.12;73.60;98926.66;5075338;28;20051;-57
2022/04/07 11:07:04;;;;;;;5.10;1.20;;;;;;;14.31;72.94;98937.56;5075079;28;20048;-55
2022/04/07 11:09:58;;;;;;;4.43;1.98;;;;;;;14.26;72.67;98935.91;5064044;28;20053;-59
2022/04/07 11:12:29;;;;;;;4.18;1.45;;;;;;;14.29;72.49;98924.09;5072363;28;20052;-58
2022/04/07 11:15:02;;;;;;;3.35;1.20;;;;;;;14.30;71.31;98939.53;5065021;28;20048;-60
2022/04/07 11:17:46;;;;;;;1.52;0.60;;;;;;;14.51;70.23;98942.50;5074850;28;20075;-55
2022/04/07 11:20:19;;;;;;;2.53;0.60;;;;;;;14.43;70.48;98948.38;5070607;28;20063;-58
2022/04/07 11:22:55;;;;;;;1.85;0.60;;;;;;;14.32;70.15;98970.41;5074914;28;20064;-55
2022/04/07 11:25:35;;;;;;;1.20;0.50;;;;;;;14.33;70.50;98968.44;5073881;28;20052;-56
2022/04/07 11:28:12;;;;;;;0.93;0.63;;;;;;;14.34;69.98;98968.06;5076879;28;20419;-58
2022/04/07 11:30:53;;;;;;;2.00;0.70;;;;;;;14.50;70.76;98963.09;5090609;28;20056;-57
2022/04/07 11:33:20;;;;;;;4.78;2.25;;;;;;;14.26;69.42;98973.91;5069554;28;20445;-62
2022/04/07 11:35:59;;;;;;;8.43;4.32;;;;;;;14.34;68.75;98967.25;5069026;28;20052;-62
2022/04/07 11:38:31;;;;;;;5.10;1.30;;;;;;;14.49;68.20;98975.31;5075137;28;20421;-62
2022/04/07 11:40:58;;;;;;;5.40;0.93;;;;;;;14.56;68.28;98977.34;5068885;28;20408;-61
2022/04/07 11:43:26;;;;;;;2.40;0.50;;;;;;;14.42;66.83;98993.84;5073266;28;20071;-60
2022/04/07 11:45:55;;;;;;;2.67;0.60;;;;;;;14.30;67.65;98997.69;5059238;28;20053;-61
2022/04/07 11:48:42;;;;;;;5.85;0.90;;;;;;;13.98;67.19;99001.25;5072690;28;20056;-60